.
WxDataArchive / Data Records for 2016-04-16
2016-04-15 April 2016 2016-04-17

Data Records for Saturday, 16 April 2016

Time	Temp	Chill	HIndex	Humid	Dewpt	 Wind 	HiWind	WindDir	Rain 	Barom
-----	----	-----	------	-----	-----	------	------	-------	-----	-----
00:00	51.3	51.3	51.3	56	36.1	0	2	90	0.00	30.237 
00:05	51.0	51.0	51.0	56	35.9	1	4	90	0.00	30.237 
00:10	51.0	51.0	51.0	56	35.9	1	4	90	0.00	30.237 
00:15	50.8	50.8	50.8	57	36.1	0	2	90	0.00	30.231 
00:20	50.5	50.5	50.5	57	35.8	0	1	90	0.00	30.231 
00:25	50.4	50.4	50.4	58	36.2	0	1	90	0.00	30.231 
00:30	50.1	50.1	50.1	58	35.9	1	3	90	0.00	30.232 
00:35	49.9	49.9	49.9	58	35.7	0	2	90	0.00	30.232 
00:40	49.8	49.8	49.8	59	36.1	0	1	90	0.00	30.232 
00:45	49.5	49.5	49.5	59	35.8	0	1	90	0.00	30.232 
00:50	49.5	49.5	49.5	59	35.8	0	2	90	0.00	30.232 
00:55	49.4	49.4	49.4	59	35.7	0	2	90	0.00	30.232 
01:00	49.2	49.2	49.2	59	35.5	0	1	90	0.00	30.233 
01:05	48.9	48.9	48.9	60	35.6	0	2	90	0.00	30.233 
01:10	48.9	48.9	48.9	61	36.0	0	1	90	0.00	30.233 
01:15	48.6	48.6	48.6	61	35.8	0	1	90	0.00	30.231 
01:20	48.5	48.5	48.5	61	35.7	0	2	90	0.00	30.231 
01:25	48.3	48.3	48.3	62	35.9	0	2	90	0.00	30.231 
01:30	48.2	48.2	48.2	61	35.4	0	1	90	0.00	30.232 
01:35	48.0	48.0	48.0	61	35.2	0	3	90	0.00	30.232 
01:40	47.9	47.9	47.9	62	35.5	0	1	90	0.00	30.232 
01:45	47.7	47.7	47.7	62	35.3	0	1	90	0.00	30.234 
01:50	47.7	47.7	47.7	62	35.3	0	2	90	0.00	30.234 
01:55	47.6	47.6	47.6	62	35.2	0	2	90	0.00	30.234 
02:00	47.4	47.4	47.4	62	35.0	0	1	90	0.00	30.234 
02:05	47.4	47.4	47.4	62	35.0	0	1	90	0.00	30.234 
02:10	47.3	47.3	47.3	63	35.4	0	2	90	0.00	30.234 
02:15	47.1	47.1	47.1	63	35.2	0	1	90	0.00	30.230 
02:20	46.8	46.8	46.8	63	34.9	0	1	90	0.00	30.230 
02:25	46.8	46.8	46.8	63	34.9	0	1	90	0.00	30.230 
02:30	46.7	46.7	46.7	64	35.2	0	1	90	0.00	30.229 
02:35	46.5	46.5	46.5	64	35.0	0	0	---	0.00	30.229 
02:40	46.4	46.4	46.4	64	34.9	0	2	90	0.00	30.229 
02:45	46.4	46.4	46.4	64	34.9	0	1	90	0.00	30.228 
02:50	46.2	46.2	46.2	65	35.1	0	0	---	0.00	30.228 
02:55	46.1	46.1	46.1	65	35.0	0	1	90	0.00	30.228 
03:00	46.1	46.1	46.1	65	35.0	0	2	90	0.00	30.229 
03:05	46.0	46.0	46.0	65	34.9	0	1	90	0.00	30.229 
03:10	45.8	45.8	45.8	65	34.7	0	0	---	0.00	30.229 
03:15	45.8	45.8	45.8	65	34.7	0	0	---	0.00	30.228 
03:20	45.7	45.7	45.7	66	35.0	0	0	---	0.00	30.228 
03:25	45.5	45.5	45.5	66	34.8	0	1	90	0.00	30.228 
03:30	45.5	45.5	45.5	66	34.8	0	1	90	0.00	30.227 
03:35	45.5	45.5	45.5	66	34.8	0	1	90	0.00	30.227 
03:40	45.4	45.4	45.4	66	34.7	0	0	---	0.00	30.227 
03:45	45.4	45.4	45.4	67	35.1	0	1	90	0.00	30.230 
03:50	45.4	45.4	45.4	67	35.1	0	1	90	0.00	30.230 
03:55	45.2	45.2	45.2	67	34.9	0	2	90	0.00	30.230 
04:00	45.2	45.2	45.2	68	35.3	0	1	90	0.00	30.231 
04:05	45.2	45.2	45.2	68	35.3	0	0	---	0.00	30.231 
04:10	45.1	45.1	45.1	69	35.5	0	1	90	0.00	30.231 
04:15	44.9	44.9	44.9	69	35.4	0	2	90	0.00	30.232 
04:20	44.8	44.8	44.8	69	35.3	0	0	---	0.00	30.232 
04:25	44.6	44.6	44.6	70	35.4	0	1	90	0.00	30.232 
04:30	44.5	44.5	44.5	70	35.3	0	1	90	0.00	30.234 
04:35	44.3	44.3	44.3	71	35.5	0	2	90	0.00	30.234 
04:40	44.2	44.2	44.2	71	35.4	0	2	90	0.00	30.234 
04:45	44.2	44.2	44.2	71	35.4	0	2	90	0.00	30.233 
04:50	44.2	44.2	44.2	71	35.4	0	1	90	0.00	30.233 
04:55	44.2	44.2	44.2	72	35.8	0	1	90	0.00	30.233 
05:00	44.2	44.2	44.2	72	35.8	0	3	90	0.00	30.234 
05:05	44.2	44.2	44.2	72	35.8	0	1	90	0.00	30.234 
05:10	44.2	44.2	44.2	72	35.8	0	1	90	0.00	30.234 
05:15	44.1	44.1	44.1	72	35.7	0	1	90	0.00	30.239 
05:20	44.2	44.2	44.2	72	35.8	0	2	90	0.00	30.239 
05:25	44.2	44.2	44.2	73	36.1	0	2	90	0.00	30.239 
05:30	44.1	44.1	44.1	73	36.0	0	3	90	0.00	30.242 
05:35	44.1	44.1	44.1	73	36.0	0	2	90	0.00	30.242 
05:40	44.1	44.1	44.1	73	36.0	0	4	90	0.00	30.242 
05:45	44.1	44.1	44.1	73	36.0	0	1	90	0.00	30.246 
05:50	43.9	43.9	43.9	74	36.2	0	3	90	0.00	30.246 
05:55	43.9	43.9	43.9	74	36.2	1	2	90	0.00	30.246 
06:00	43.9	43.9	43.9	74	36.2	0	2	90	0.00	30.249 
06:05	43.8	43.8	43.8	74	36.1	0	1	90	0.00	30.249 
06:10	43.6	43.6	43.6	75	36.2	0	1	90	0.00	30.249 
06:15	43.5	43.5	43.5	76	36.4	0	2	90	0.00	30.256 
06:20	43.3	43.3	43.3	77	36.6	0	1	90	0.00	30.256 
06:25	43.3	43.3	43.3	77	36.6	0	2	90	0.00	30.256 
06:30	43.2	43.2	43.2	77	36.5	0	1	90	0.00	30.262 
06:35	43.1	43.1	43.1	77	36.4	0	2	90	0.00	30.262 
06:40	42.9	42.9	42.9	78	36.5	0	2	90	0.00	30.262 
06:45	42.8	42.8	42.8	78	36.4	0	2	90	0.00	30.265 
06:50	42.8	42.8	42.8	78	36.4	0	1	90	0.00	30.265 
06:55	42.6	42.6	42.6	79	36.6	0	1	90	0.00	30.265 
07:00	42.5	42.5	42.5	79	36.5	0	1	90	0.00	30.268 
07:05	42.3	42.3	42.3	79	36.3	0	1	90	0.00	30.268 
07:10	42.2	42.2	42.2	80	36.5	0	1	90	0.00	30.268 
07:15	42.2	42.2	42.2	80	36.5	0	1	90	0.00	30.282 
07:20	42.1	42.1	42.1	81	36.7	0	2	90	0.00	30.282 
07:25	42.1	42.1	42.1	81	36.7	0	2	90	0.00	30.282 
07:30	42.1	42.1	42.1	81	36.7	0	2	90	0.00	30.284 
07:35	42.2	42.2	42.2	81	36.8	0	1	90	0.00	30.284 
07:40	42.3	42.3	42.3	82	37.2	0	2	90	0.00	30.284 
07:45	42.8	42.8	42.8	81	37.4	0	2	90	0.00	30.286 
07:50	43.3	43.3	43.3	81	37.9	0	1	90	0.00	30.286 
07:55	44.1	44.1	44.1	79	38.0	0	3	90	0.00	30.286 
08:00	44.8	44.8	44.8	77	38.0	0	3	90	0.00	30.285 
08:05	45.4	45.4	45.4	76	38.3	0	3	90	0.00	30.285 
08:10	46.0	46.0	46.0	75	38.5	1	4	90	0.00	30.285 
08:15	46.4	46.4	46.4	74	38.6	2	4	90	0.00	30.294 
08:20	46.8	46.8	46.8	74	39.0	1	3	90	0.00	30.294 
08:25	47.3	47.3	47.3	73	39.1	0	2	90	0.00	30.294 
08:30	47.7	47.7	47.7	72	39.1	0	3	90	0.00	30.297 
08:35	48.2	48.2	48.2	71	39.2	1	5	90	0.00	30.297 
08:40	48.8	48.8	48.8	71	39.8	1	4	90	0.00	30.297 
08:45	49.1	49.1	49.1	70	39.7	2	4	90	0.00	30.299 
08:50	49.4	49.4	49.4	69	39.7	2	5	90	0.00	30.299 
08:55	49.4	49.4	49.4	69	39.7	3	6	90	0.00	30.299 
09:00	49.2	49.2	49.2	70	39.8	2	5	90	0.00	30.302 
09:05	49.6	49.6	49.6	70	40.2	1	4	90	0.00	30.302 
09:10	50.1	50.1	50.1	69	40.3	1	4	90	0.00	30.302 
09:15	50.5	50.5	50.5	68	40.3	1	3	90	0.00	30.309 
09:20	51.3	51.3	51.3	67	40.7	0	2	90	0.00	30.309 
09:25	51.9	51.9	51.9	66	40.9	0	4	90	0.00	30.309 
09:30	52.5	52.5	52.5	65	41.1	1	4	90	0.00	30.311 
09:35	52.9	52.9	52.9	64	41.1	2	5	90	0.00	30.311 
09:40	53.2	53.2	53.2	64	41.3	2	4	90	0.00	30.311 
09:45	53.6	53.6	53.6	65	42.1	2	5	90	0.00	30.310 
09:50	54.1	54.1	54.1	63	41.8	2	5	90	0.00	30.310 
09:55	54.4	54.4	54.4	62	41.7	1	4	90	0.00	30.310 
10:00	54.7	54.7	54.7	61	41.5	2	6	90	0.00	30.311 
10:05	55.1	55.1	55.1	62	42.3	1	5	90	0.00	30.311 
10:10	55.7	55.7	55.7	60	42.0	1	3	90	0.00	30.311 
10:15	56.6	56.6	56.6	59	42.4	1	4	90	0.00	30.314 
10:20	57.2	57.2	57.2	58	42.6	1	4	90	0.00	30.314 
10:25	58.1	58.1	58.1	57	42.9	0	3	90	0.00	30.314 
10:30	58.9	58.9	58.9	56	43.2	1	3	90	0.00	30.312 
10:35	59.3	59.3	59.3	54	42.7	2	5	90	0.00	30.312 
10:40	59.8	59.8	59.8	52	42.1	2	4	90	0.00	30.312 
10:45	60.1	60.1	60.1	53	42.9	1	4	68	0.00	30.310 
10:50	60.7	60.7	60.7	52	43.0	1	4	68	0.00	30.310 
10:55	61.3	61.3	61.3	51	43.0	2	4	68	0.00	30.310 
11:00	61.8	61.8	61.8	53	44.5	1	3	45	0.00	30.307 
11:05	62.4	62.4	62.4	49	43.0	1	4	90	0.00	30.307 
11:10	63.1	63.1	63.1	51	44.7	1	4	90	0.00	30.307 
11:15	63.4	63.4	63.4	49	43.9	1	4	90	0.00	30.310 
11:20	63.9	63.9	63.9	47	43.3	1	4	90	0.00	30.310 
11:25	64.3	64.3	64.3	50	45.3	1	4	90	0.00	30.310 
11:30	64.8	64.8	64.8	47	44.1	0	4	90	0.00	30.307 
11:35	65.6	65.6	65.6	48	45.4	2	5	90	0.00	30.307 
11:40	66.1	66.1	66.1	45	44.1	0	2	90	0.00	30.307 
11:45	66.8	66.8	66.8	42	43.0	1	4	90	0.00	30.306 
11:50	67.3	67.3	67.3	42	43.4	1	4	90	0.00	30.306 
11:55	67.4	67.4	67.4	41	42.9	1	5	90	0.00	30.306 
12:00	67.8	67.8	67.8	41	43.2	1	5	90	0.00	30.307 
12:05	67.8	67.8	67.8	40	42.6	2	5	90	0.00	30.307 
12:10	68.3	68.3	68.3	41	43.7	2	5	90	0.00	30.307 
12:15	68.4	68.4	68.4	40	43.1	2	5	112	0.00	30.308 
12:20	68.9	68.9	68.9	46	47.3	2	4	112	0.00	30.308 
12:25	69.3	69.3	69.3	41	44.6	2	6	112	0.00	30.308 
12:30	69.8	69.8	69.8	43	46.3	1	4	90	0.00	30.303 
12:35	70.3	70.3	70.3	39	44.2	2	6	90	0.00	30.303 
12:40	70.4	70.4	70.4	38	43.6	2	5	90	0.00	30.303 
12:45	70.6	70.6	70.6	40	45.1	1	4	68	0.00	30.302 
12:50	70.9	70.9	70.9	38	44.0	1	4	68	0.00	30.302 
12:55	71.1	71.1	71.1	38	44.2	2	6	90	0.00	30.302 
13:00	71.6	71.6	71.6	39	45.3	1	5	68	0.00	30.299 
13:05	72.1	72.1	72.1	37	44.4	2	6	90	0.00	30.299 
13:10	72.3	72.3	72.3	38	45.3	3	6	112	0.00	30.299 
13:15	72.7	72.7	72.7	38	45.6	2	6	90	0.00	30.292 
13:20	72.8	72.8	72.8	35	43.5	3	7	90	0.00	30.292 
13:25	73.0	73.0	73.0	34	43.0	3	7	90	0.00	30.292 
13:30	73.2	73.2	73.2	34	43.1	2	6	90	0.00	30.291 
13:35	73.7	73.7	73.7	35	44.3	2	5	112	0.00	30.291 
13:40	74.0	74.0	74.0	33	43.1	2	9	90	0.00	30.291 
13:45	74.2	74.2	74.2	29	39.9	3	9	90	0.00	30.288 
13:50	74.4	74.4	74.4	30	40.9	2	5	90	0.00	30.288 
13:55	74.4	74.4	74.4	28	39.2	4	6	112	0.00	30.288 
14:00	74.4	74.4	74.4	27	38.2	2	7	112	0.00	30.288 
14:05	74.4	74.4	74.4	28	39.2	3	9	90	0.00	30.288 
14:10	74.4	74.4	74.4	27	38.2	2	6	90	0.00	30.288 
14:15	74.7	74.7	74.7	26	37.5	2	7	90	0.00	30.286 
14:20	74.9	74.9	74.9	29	40.5	1	6	68	0.00	30.286 
14:25	75.1	75.1	76.6	26	37.9	3	6	112	0.00	30.286 
14:30	75.3	75.3	76.8	27	39.0	1	4	90	0.00	30.281 
14:35	75.4	75.4	76.8	27	39.1	2	6	112	0.00	30.281 
14:40	75.6	75.6	77.0	28	40.2	2	6	68	0.00	30.281 
14:45	75.4	75.4	76.7	25	37.1	3	7	90	0.00	30.282 
14:50	75.4	75.4	76.8	27	39.1	1	4	90	0.00	30.282 
14:55	75.8	75.8	77.0	27	39.4	2	5	90	0.00	30.282 
15:00	76.0	76.0	77.1	27	39.6	2	6	68	0.00	30.276 
15:05	76.0	76.0	77.0	26	38.6	3	6	68	0.00	30.276 
15:10	76.0	76.0	77.1	28	40.5	3	7	112	0.00	30.276 
15:15	76.1	76.1	77.1	27	39.7	2	6	135	0.00	30.278 
15:20	75.8	75.8	76.7	24	36.4	4	7	90	0.00	30.278 
15:25	75.6	75.6	76.9	27	39.2	2	7	90	0.00	30.278 
15:30	75.8	75.8	76.8	25	37.5	2	7	112	0.00	30.275 
15:35	75.8	75.8	77.0	27	39.4	3	10	90	0.00	30.275 
15:40	75.6	75.6	77.0	28	40.2	3	7	90	0.00	30.275 
15:45	75.4	75.4	76.8	27	39.1	1	6	90	0.00	30.274 
15:50	75.8	75.8	76.9	26	38.5	2	5	90	0.00	30.274 
15:55	75.8	75.8	76.8	25	37.5	3	6	90	0.00	30.274 
16:00	75.8	75.8	77.1	28	40.4	1	5	112	0.00	30.273 
16:05	75.8	75.8	77.0	27	39.4	3	10	90	0.00	30.273 
16:10	75.4	75.4	76.7	25	37.1	2	9	90	0.00	30.273 
16:15	75.6	75.6	76.7	25	37.3	0	3	90	0.00	30.273 
16:20	75.8	75.8	77.0	27	39.4	2	9	90	0.00	30.273 
16:25	75.8	75.8	76.8	25	37.5	2	6	90	0.00	30.273 
16:30	75.6	75.6	77.0	28	40.2	2	6	112	0.00	30.271 
16:35	75.6	75.6	77.0	28	40.2	2	7	112	0.00	30.271 
16:40	75.6	75.6	76.8	26	38.3	1	3	45	0.00	30.271 
16:45	75.6	75.6	76.8	26	38.3	3	6	112	0.00	30.269 
16:50	75.6	75.6	76.9	27	39.2	2	5	112	0.00	30.269 
16:55	75.6	75.6	76.8	26	38.3	3	6	112	0.00	30.269 
17:00	75.4	75.4	76.8	27	39.1	3	10	112	0.00	30.270 
17:05	75.3	75.3	76.6	25	37.0	3	7	112	0.00	30.270 
17:10	74.9	74.9	74.9	27	38.7	4	8	112	0.00	30.270 
17:15	74.9	74.9	74.9	26	37.7	2	7	90	0.00	30.273 
17:20	74.9	74.9	74.9	26	37.7	3	7	90	0.00	30.273 
17:25	75.1	75.1	76.7	27	38.8	2	6	90	0.00	30.273 
17:30	74.9	74.9	74.9	25	36.7	3	10	90	0.00	30.274 
17:35	74.9	74.9	74.9	26	37.7	2	6	112	0.00	30.274 
17:40	74.7	74.7	74.7	25	36.5	2	5	90	0.00	30.274 
17:45	74.7	74.7	74.7	25	36.5	2	6	112	0.00	30.275 
17:50	74.7	74.7	74.7	28	39.4	3	6	112	0.00	30.275 
17:55	74.6	74.6	74.6	25	36.4	3	7	112	0.00	30.275 
18:00	74.2	74.2	74.2	25	36.1	3	9	90	0.00	30.275 
18:05	74.4	74.4	74.4	26	37.3	1	5	90	0.00	30.275 
18:10	74.4	74.4	74.4	25	36.3	1	4	90	0.00	30.275 
18:15	74.4	74.4	74.4	25	36.3	2	6	90	0.00	30.278 
18:20	74.2	74.2	74.2	26	37.1	2	6	112	0.00	30.278 
18:25	74.0	74.0	74.0	26	36.9	1	5	112	0.00	30.278 
18:30	73.9	73.9	73.9	26	36.8	1	5	90	0.00	30.281 
18:35	73.7	73.7	73.7	26	36.7	1	5	90	0.00	30.281 
18:40	73.5	73.5	73.5	26	36.5	2	5	90	0.00	30.281 
18:45	73.3	73.3	73.3	25	35.3	2	5	68	0.00	30.283 
18:50	73.3	73.3	73.3	25	35.3	1	4	90	0.00	30.283 
18:55	73.3	73.3	73.3	27	37.3	1	4	90	0.00	30.283 
19:00	73.2	73.2	73.2	26	36.2	2	5	90	0.00	30.285 
19:05	73.0	73.0	73.0	25	35.1	2	5	90	0.00	30.285 
19:10	73.0	73.0	73.0	26	36.1	1	5	90	0.00	30.285 
19:15	72.8	72.8	72.8	26	35.9	2	5	90	0.00	30.283 
19:20	72.5	72.5	72.5	27	36.6	1	3	90	0.00	30.283 
19:25	72.3	72.3	72.3	28	37.4	1	3	90	0.00	30.283 
19:30	72.0	72.0	72.0	27	36.2	1	3	90	0.00	30.279 
19:35	71.8	71.8	71.8	28	36.9	1	4	90	0.00	30.279 
19:40	71.6	71.6	71.6	28	36.8	1	2	90	0.00	30.279 
19:45	71.3	71.3	71.3	29	37.4	1	3	90	0.00	30.284 
19:50	70.9	70.9	70.9	31	38.7	1	4	90	0.00	30.284 
19:55	70.6	70.6	70.6	32	39.3	1	3	90	0.00	30.284 
20:00	70.1	70.1	70.1	33	39.7	0	2	90	0.00	30.289 
20:05	69.6	69.6	69.6	34	40.0	0	2	90	0.00	30.289 
20:10	69.1	69.1	69.1	35	40.3	0	1	90	0.00	30.289 
20:15	68.6	68.6	68.6	35	39.8	0	5	90	0.00	30.288 
20:20	68.1	68.1	68.1	35	39.4	0	2	90	0.00	30.288 
20:25	67.6	67.6	67.6	36	39.7	0	2	90	0.00	30.288 
20:30	67.1	67.1	67.1	37	40.0	0	1	90	0.00	30.292 
20:35	66.8	66.8	66.8	38	40.4	0	1	90	0.00	30.292 
20:40	66.3	66.3	66.3	39	40.6	0	1	90	0.00	30.292 
20:45	65.8	65.8	65.8	39	40.1	0	2	90	0.00	30.302 
20:50	65.3	65.3	65.3	40	40.4	0	1	90	0.00	30.302 
20:55	65.0	65.0	65.0	40	40.1	0	1	90	0.00	30.302 
21:00	64.7	64.7	64.7	40	39.8	0	3	90	0.00	30.307 
21:05	64.5	64.5	64.5	40	39.6	0	1	90	0.00	30.307 
21:10	64.0	64.0	64.0	41	39.8	0	2	90	0.00	30.307 
21:15	63.7	63.7	63.7	41	39.6	0	1	90	0.00	30.308 
21:20	63.4	63.4	63.4	42	39.9	0	1	90	0.00	30.308 
21:25	62.9	62.9	62.9	42	39.5	0	2	90	0.00	30.308 
21:30	62.4	62.4	62.4	43	39.6	0	2	90	0.00	30.317 
21:35	62.1	62.1	62.1	43	39.3	0	2	90	0.00	30.317 
21:40	61.8	61.8	61.8	43	39.1	0	1	90	0.00	30.317 
21:45	61.3	61.3	61.3	44	39.2	0	2	90	0.00	30.324 
21:50	60.9	60.9	60.9	45	39.4	0	1	90	0.00	30.324 
21:55	60.5	60.5	60.5	46	39.6	0	1	90	0.00	30.324 
22:00	60.1	60.1	60.1	46	39.2	0	2	90	0.00	30.326 
22:05	59.8	59.8	59.8	47	39.5	0	2	90	0.00	30.326 
22:10	59.3	59.3	59.3	47	39.1	0	1	90	0.00	30.326 
22:15	59.2	59.2	59.2	46	38.4	1	4	90	0.00	30.323 
22:20	59.3	59.3	59.3	46	38.5	1	3	90	0.00	30.323 
22:25	59.2	59.2	59.2	46	38.4	1	3	90	0.00	30.323 
22:30	59.0	59.0	59.0	47	38.8	1	3	90	0.00	30.326 
22:35	58.7	58.7	58.7	47	38.5	0	2	90	0.00	30.326 
22:40	58.4	58.4	58.4	48	38.8	0	2	90	0.00	30.326 
22:45	58.1	58.1	58.1	49	39.0	0	2	90	0.00	30.333 
22:50	57.8	57.8	57.8	50	39.3	1	3	90	0.00	30.333 
22:55	57.5	57.5	57.5	50	39.0	0	1	90	0.00	30.333 
23:00	57.2	57.2	57.2	51	39.2	0	1	90	0.00	30.336 
23:05	56.9	56.9	56.9	51	39.0	0	1	90	0.00	30.336 
23:10	56.7	56.7	56.7	51	38.8	0	1	90	0.00	30.336 
23:15	56.6	56.6	56.6	51	38.7	0	2	90	0.00	30.332 
23:20	56.5	56.5	56.5	51	38.6	0	2	90	0.00	30.332 
23:25	56.3	56.3	56.3	52	38.9	0	1	90	0.00	30.332 
23:30	56.2	56.2	56.2	53	39.3	0	1	90	0.00	30.332 
23:35	55.9	55.9	55.9	54	39.5	0	0	---	0.00	30.332 
23:40	55.6	55.6	55.6	55	39.7	0	1	90	0.00	30.332 
23:45	55.3	55.3	55.3	56	39.9	0	2	90	0.00	30.333 
23:50	55.0	55.0	55.0	56	39.6	0	1	90	0.00	30.333 
23:55	54.8	54.8	54.8	56	39.4	0	1	90	0.00	30.333 

CoCoRaHS
IN-AL-39
A2 Web Hosting
Creative Commons License
GoDaddy
search engine by freefind advanced

loaded 2018-11-15 17:46:28 • last modified 2010-11-18 10:43:29
Privacy PolicyDisclaimer
• wx.awcolley.com is powered by PmWiki v.2002016 •
• all content (unless otherwise noted) © 2018 A W Colley